Terminal Aerodrome Forecast
Issued by NWS

Home | Current Version | Previous Version | Text Only | Print | Product List | Glossary On
Versions: 1 2 3 4 5 6 7 8 9 10 11 12 13
000
FTUS42 TJSJ 211131
TAFKPK
TAF
TKPK 211131Z 2112/2212 07012KT P6SM FEW020
     FM212330 07009KT P6SM SCT019
      AMD NOT SKED 2202/2211=

USA.gov is the U.S. government's official web portal to all federal, state and local government web resources and services.